createdAt,value
2022-12-08T00:01:54.426Z,34.33
2022-12-08T00:07:17.149Z,28.48
2022-12-08T00:12:21.423Z,46.42
2022-12-08T00:17:25.404Z,26.60
2022-12-08T00:22:34.906Z,24.83
2022-12-08T00:27:39.035Z,12.93
2022-12-08T00:32:43.572Z,15.95
2022-12-08T00:37:49.205Z,19.00
2022-12-08T00:42:53.314Z,22.80
2022-12-08T00:47:57.597Z,22.38
2022-12-08T00:53:03.243Z,28.85
2022-12-08T00:58:07.518Z,30.85
2022-12-08T01:03:12.078Z,22.83
2022-12-08T01:08:17.609Z,11.18
2022-12-08T01:13:22.013Z,27.50
2022-12-08T01:18:26.459Z,12.60
2022-12-08T01:23:32.048Z,14.95
2022-12-08T01:28:36.283Z,17.88
2022-12-08T01:33:41.165Z,14.90
2022-12-08T01:38:47.807Z,13.30
2022-12-08T01:44:28.044Z,17.52
2022-12-08T01:49:37.150Z,14.45
2022-12-08T01:54:47.537Z,14.07
2022-12-08T01:59:57.397Z,15.68
2022-12-08T02:05:02.902Z,19.73
2022-12-08T02:10:10.273Z,21.67
2022-12-08T02:15:15.707Z,22.85
2022-12-08T02:20:39.303Z,25.02
2022-12-08T02:26:03.240Z,18.13
2022-12-08T02:31:22.382Z,20.80
2022-12-08T02:36:33.827Z,27.17
2022-12-08T02:41:43.569Z,27.20
2022-12-08T02:46:53.328Z,24.13
2022-12-08T02:52:08.702Z,20.23
2022-12-08T02:57:31.345Z,50.10
2022-12-08T03:02:47.015Z,28.45
2022-12-08T03:07:59.573Z,18.45
2022-12-08T03:13:09.438Z,17.13
2022-12-08T03:18:17.268Z,21.25
2022-12-08T03:23:25.468Z,17.70
2022-12-08T03:28:29.616Z,11.48
2022-12-08T03:33:37.679Z,15.32
2022-12-08T03:38:45.958Z,11.45
2022-12-08T03:43:52.018Z,12.07
2022-12-08T03:48:56.251Z,9.60
2022-12-08T03:54:01.894Z,13.57
2022-12-08T03:59:07.518Z,12.45
2022-12-08T04:04:12.493Z,15.07
2022-12-08T04:09:18.868Z,35.10
2022-12-08T04:14:24.167Z,35.40
2022-12-08T04:19:28.645Z,20.00
2022-12-08T04:24:34.386Z,16.80
2022-12-08T04:29:38.516Z,29.55
2022-12-08T04:34:42.709Z,39.42
2022-12-08T04:39:48.148Z,53.97
2022-12-08T04:44:52.378Z,41.80
2022-12-08T04:49:56.641Z,23.58
2022-12-08T04:55:02.438Z,26.55
2022-12-08T05:00:10.508Z,26.58
2022-12-08T05:05:14.692Z,28.83
2022-12-08T05:10:21.228Z,34.47
2022-12-08T05:15:26.131Z,27.83
2022-12-08T05:20:30.784Z,39.90
2022-12-08T05:25:36.673Z,45.58
2022-12-08T05:30:43.878Z,32.67
2022-12-08T05:35:47.955Z,46.47
2022-12-08T05:40:53.554Z,27.52
2022-12-08T05:45:57.767Z,40.22
2022-12-08T05:51:02.235Z,39.55
2022-12-08T05:56:08.419Z,25.85
2022-12-08T06:01:20.959Z,23.35
2022-12-08T06:06:25.610Z,25.50
2022-12-08T06:11:33.527Z,25.27
2022-12-08T06:16:39.538Z,31.02
2022-12-08T06:21:44.367Z,33.88
2022-12-08T06:26:51.871Z,40.67
2022-12-08T06:31:56.415Z,38.45
2022-12-08T06:37:02.812Z,47.58
2022-12-08T06:42:26.015Z,57.42
2022-12-08T06:47:30.525Z,47.97
2022-12-08T06:52:37.682Z,41.65
2022-12-08T06:57:46.611Z,61.80
2022-12-08T07:02:52.058Z,54.17
2022-12-08T07:07:56.408Z,64.95
2022-12-08T07:13:04.957Z,69.70
2022-12-08T07:18:10.025Z,76.60
2022-12-08T07:23:15.399Z,64.55
2022-12-08T07:28:21.436Z,57.67
2022-12-08T07:33:26.386Z,37.67
2022-12-08T07:38:31.107Z,38.17
2022-12-08T07:43:37.180Z,111.22
2022-12-08T07:48:42.520Z,81.75
2022-12-08T07:53:53.363Z,95.78
2022-12-08T07:59:01.002Z,89.07
2022-12-08T08:04:11.087Z,87.55
2022-12-08T08:09:15.687Z,73.40
2022-12-08T08:14:22.409Z,57.60
2022-12-08T08:19:26.501Z,50.33
2022-12-08T08:24:30.509Z,62.30
2022-12-08T08:29:35.997Z,40.00
2022-12-08T08:34:40.366Z,40.42
2022-12-08T08:39:45.052Z,45.05
2022-12-08T08:44:51.452Z,20.27
2022-12-08T08:49:55.925Z,17.25
2022-12-08T08:54:59.994Z,15.35
2022-12-08T09:00:10.363Z,19.75
2022-12-08T09:05:16.537Z,23.30
2022-12-08T09:10:21.189Z,12.23
2022-12-08T09:15:26.775Z,21.13
2022-12-08T09:20:31.115Z,23.23
2022-12-08T09:25:35.587Z,28.55
2022-12-08T09:30:42.112Z,30.65
2022-12-08T09:35:46.326Z,18.15
2022-12-08T09:40:52.795Z,19.08
2022-12-08T09:46:00.798Z,25.10
2022-12-08T09:51:07.066Z,16.45
2022-12-08T09:56:15.627Z,16.38
2022-12-08T10:01:22.548Z,14.10
2022-12-08T10:06:33.138Z,21.15
2022-12-08T10:11:45.397Z,20.85
2022-12-08T10:16:53.818Z,27.02
2022-12-08T10:22:01.487Z,24.97
2022-12-08T10:27:09.868Z,23.30
2022-12-08T10:32:19.641Z,31.08
2022-12-08T10:37:25.642Z,28.40
2022-12-08T10:42:36.486Z,23.15
2022-12-08T10:47:45.680Z,32.05
2022-12-08T10:52:58.454Z,29.73
2022-12-08T10:58:05.049Z,20.70
2022-12-08T11:03:29.730Z,21.50
2022-12-08T11:08:34.487Z,29.85
2022-12-08T11:13:42.478Z,19.60
2022-12-08T11:18:57.348Z,23.83
2022-12-08T11:24:19.942Z,16.33
2022-12-08T11:29:24.639Z,23.52
2022-12-08T11:34:36.791Z,17.88
2022-12-08T11:39:49.983Z,19.95
2022-12-08T11:44:59.261Z,18.15
2022-12-08T11:55:37.174Z,17.02
2022-12-08T12:00:45.658Z,19.58
2022-12-08T12:06:38.168Z,19.67
2022-12-08T12:12:09.528Z,21.05
2022-12-08T12:17:32.167Z,20.20
2022-12-08T12:22:39.160Z,20.23
2022-12-08T12:27:45.885Z,26.58
2022-12-08T12:32:55.754Z,27.15
2022-12-08T12:38:08.639Z,33.30
2022-12-08T12:43:29.543Z,26.67
2022-12-08T12:48:33.555Z,29.63
2022-12-08T12:53:52.304Z,21.92
2022-12-08T12:58:56.762Z,19.80
2022-12-08T13:04:09.420Z,27.50
2022-12-08T13:09:29.656Z,26.00
2022-12-08T13:14:37.121Z,44.45
2022-12-08T13:19:44.390Z,58.22
2022-12-08T13:24:53.995Z,38.88
2022-12-08T13:30:35.117Z,22.25
2022-12-08T13:35:47.467Z,31.30
2022-12-08T13:40:55.042Z,51.42
2022-12-08T13:57:10.130Z,35.43
2022-12-08T14:02:19.619Z,27.48
2022-12-08T14:07:26.000Z,24.42
2022-12-08T14:12:32.995Z,30.13
2022-12-08T14:17:37.272Z,23.40
2022-12-08T14:22:42.257Z,27.92
2022-12-08T14:27:51.881Z,38.65
2022-12-08T14:32:58.983Z,30.92
2022-12-08T14:38:05.977Z,32.90
2022-12-08T14:43:18.367Z,37.75
2022-12-08T14:48:25.399Z,32.30
2022-12-08T14:53:40.096Z,73.53
2022-12-08T14:58:46.517Z,70.82
2022-12-08T15:03:51.771Z,79.53
2022-12-08T15:09:00.145Z,58.35
2022-12-08T15:14:29.305Z,42.20
2022-12-08T15:19:35.529Z,55.00
2022-12-08T15:24:42.002Z,43.90
2022-12-08T15:29:48.121Z,38.03
2022-12-08T15:34:52.155Z,60.45
2022-12-08T15:39:56.353Z,35.65
2022-12-08T15:45:01.861Z,42.83
2022-12-08T15:50:09.328Z,37.10
2022-12-08T15:55:14.823Z,29.85
2022-12-08T16:06:50.837Z,38.58
2022-12-08T16:12:05.155Z,37.17
2022-12-08T16:17:12.913Z,31.38
2022-12-08T16:33:11.086Z,45.13
2022-12-08T16:38:16.852Z,60.42
2022-12-08T16:43:21.111Z,47.55
2022-12-08T16:48:28.565Z,45.65
2022-12-08T16:53:32.517Z,51.45
2022-12-08T16:58:39.251Z,48.92
2022-12-08T17:04:01.321Z,44.15
2022-12-08T17:09:12.005Z,45.40
2022-12-08T17:14:16.447Z,34.20
2022-12-08T17:19:22.123Z,38.42
2022-12-08T17:24:29.100Z,35.95
2022-12-08T17:29:33.314Z,41.42
2022-12-08T17:34:39.224Z,38.00
2022-12-08T17:39:43.550Z,38.85
2022-12-08T17:44:47.720Z,49.50
2022-12-08T17:49:56.211Z,51.55
2022-12-08T17:55:00.238Z,30.93
2022-12-08T18:00:06.490Z,49.88
2022-12-08T18:05:17.421Z,45.08
2022-12-08T18:10:21.606Z,45.00
2022-12-08T18:15:26.373Z,50.55
2022-12-08T18:20:31.893Z,53.13
2022-12-08T18:25:35.979Z,60.15
2022-12-08T18:30:40.976Z,60.05
2022-12-08T18:35:46.829Z,71.53
2022-12-08T18:40:51.065Z,98.70
2022-12-08T18:46:02.702Z,75.53
2022-12-08T18:51:12.560Z,66.13
2022-12-08T18:56:23.293Z,76.32
2022-12-08T19:01:27.371Z,75.15
2022-12-08T19:06:33.759Z,89.10
2022-12-08T19:11:39.608Z,67.32
2022-12-08T19:16:45.014Z,65.20
2022-12-08T19:21:53.339Z,46.10
2022-12-08T19:26:58.668Z,44.45
2022-12-08T19:32:05.238Z,46.17
2022-12-08T19:37:13.837Z,61.03
2022-12-08T19:42:38.012Z,54.17
2022-12-08T19:47:43.693Z,63.10
2022-12-08T19:52:49.438Z,52.47
2022-12-08T19:57:54.702Z,63.30
2022-12-08T20:02:59.796Z,61.53
2022-12-08T20:08:07.699Z,60.88
2022-12-08T20:13:31.503Z,75.80
2022-12-08T20:18:36.727Z,75.70
2022-12-08T20:23:42.504Z,88.93
2022-12-08T20:28:46.993Z,71.60
2022-12-08T20:33:51.250Z,55.28
2022-12-08T20:38:57.066Z,44.80
2022-12-08T20:44:01.600Z,47.35
2022-12-08T20:49:06.853Z,46.15
2022-12-08T20:54:12.826Z,40.70
2022-12-08T20:59:18.636Z,36.85
2022-12-08T21:04:24.003Z,36.40
2022-12-08T21:09:30.351Z,40.30
2022-12-08T21:14:36.585Z,43.88
2022-12-08T21:19:41.166Z,47.00
2022-12-08T21:24:46.987Z,64.30
2022-12-08T21:29:51.454Z,54.50
2022-12-08T21:34:57.637Z,66.57
2022-12-08T21:40:05.117Z,59.75
2022-12-08T21:45:10.946Z,63.88
2022-12-08T21:50:16.140Z,51.53
2022-12-08T21:55:23.791Z,43.40
2022-12-08T22:00:28.641Z,51.70
2022-12-08T22:05:33.448Z,57.13
2022-12-08T22:10:39.988Z,59.53
2022-12-08T22:15:44.654Z,58.42
2022-12-08T22:20:49.082Z,56.80
2022-12-08T22:25:59.681Z,56.35
2022-12-08T22:31:10.056Z,43.55
2022-12-08T22:36:16.517Z,39.03
2022-12-08T22:41:23.503Z,51.30
2022-12-08T22:46:28.661Z,48.47
2022-12-08T22:51:32.833Z,51.33
2022-12-08T22:56:38.694Z,50.50
2022-12-08T23:01:44.432Z,49.45
2022-12-08T23:06:49.322Z,51.35
2022-12-08T23:11:55.964Z,58.55
2022-12-08T23:17:00.250Z,49.72
2022-12-08T23:22:05.940Z,54.85
2022-12-08T23:27:11.695Z,54.78
2022-12-08T23:32:16.367Z,49.83
2022-12-08T23:37:20.644Z,46.90
2022-12-08T23:42:26.293Z,49.47
2022-12-08T23:47:31.658Z,44.65
2022-12-08T23:52:37.054Z,46.83
2022-12-08T23:57:44.633Z,34.25
